KCMX

Houghton County Memorial Airport

Hancock, Michigan, USA
METAR KCMX 170653Z AUTO 32025G35KT 10SM CLR M04/M11 A2998 RMK AO2 PK WND 31039/0604 SLP166 T10391106
Observed Flight Rules
Dec-17 @ 06:53 UTC (35 minutes ago) Visual Flight Rules
Wind Visibility Clouds
320° at 25 knots
 Gusting to 35 knots
10 miles
  • Clear skies
Temperatures Readings
Current -4°C / 25°F
Dewpoint -11°C / 12°F
Humidity 59%
Altimeter 29.98" Hg
Pressure 1016.6 hPa
Elevation 326
METAR KCMX 170653Z AUTO 32025G35KT 10SM CLR M04/M11 A2998 RMK AO2 PK WND 31039/0604 SLP166 T10391106
Observed Flight Rules
Dec-17 @ 06:53 UTC
(35 minutes ago)
VFR
Wind Visibility
320° at 25 knots
 Gusting to 35 knots
10 miles
Clouds
  • Clear skies
Temperature Dewpoint
-4°C / 25°F -11°C / 12°F
Humidity Altimeter Pressure
59% 29.98" Hg 1016.6 hPa